Time;durP1;ratioP1;P1;durP2;ratioP2;P2;SDS_P1;SDS_P2;PMS_P1;PMS_P2;Temp;Humidity;BMP_temperature;BMP_pressure;BME280_temperature;BME280_humidity;BME280_pressure;Samples;Min_cycle;Max_cycle;Signal;HPM_P1;HPM_P2
2023/09/16 00:01:41;;;;;;;12.30;9.25;;;18.10;85.30;;;;;;5053826;28;20029;-78
2023/09/16 00:04:08;;;;;;;12.90;9.13;;;18.10;85.30;;;;;;5052737;28;20022;-78
2023/09/16 00:06:34;;;;;;;12.80;8.05;;;18.10;85.30;;;;;;5053690;28;20036;-78
2023/09/16 00:09:00;;;;;;;11.20;7.85;;;18.10;85.50;;;;;;5052737;28;20021;-78
2023/09/16 00:11:26;;;;;;;12.38;8.38;;;18.10;85.40;;;;;;5053608;28;20026;-78
2023/09/16 00:13:51;;;;;;;14.05;8.32;;;18.10;85.30;;;;;;5053606;28;20031;-78
2023/09/16 00:16:17;;;;;;;11.98;8.15;;;18.10;85.40;;;;;;5053588;28;20026;-78
2023/09/16 00:18:43;;;;;;;12.68;8.50;;;18.10;85.50;;;;;;5052567;28;20121;-79
2023/09/16 00:21:10;;;;;;;11.75;8.15;;;18.10;85.60;;;;;;5053519;28;20040;-78
2023/09/16 00:23:36;;;;;;;14.15;8.63;;;18.10;85.60;;;;;;5036196;28;20021;-78
2023/09/16 00:26:03;;;;;;;11.25;8.05;;;18.10;85.50;;;;;;5053339;28;20034;-78
2023/09/16 00:28:29;;;;;;;10.63;7.90;;;18.10;85.80;;;;;;5052432;28;20021;-78
2023/09/16 00:30:55;;;;;;;10.95;7.70;;;18.10;85.80;;;;;;5035827;28;20075;-78
2023/09/16 00:33:21;;;;;;;10.73;8.10;;;18.10;85.70;;;;;;5052385;28;20025;-78
2023/09/16 00:35:46;;;;;;;11.02;8.75;;;18.10;85.70;;;;;;5052317;28;20026;-78
2023/09/16 00:38:15;;;;;;;14.48;8.55;;;18.10;86.00;;;;;;5053279;28;20060;-78
2023/09/16 00:40:41;;;;;;;11.75;8.60;;;18.10;86.10;;;;;;5053243;28;20025;-78
2023/09/16 00:43:07;;;;;;;11.57;8.68;;;18.00;86.30;;;;;;5053183;28;20481;-78
2023/09/16 00:45:33;;;;;;;14.27;8.40;;;18.00;86.60;;;;;;5035759;28;20034;-78
2023/09/16 00:47:59;;;;;;;11.35;8.27;;;18.00;86.70;;;;;;5053215;28;20021;-78
2023/09/16 00:50:25;;;;;;;12.20;8.55;;;18.00;86.60;;;;;;5052091;28;20032;-79
2023/09/16 00:52:57;;;;;;;11.73;8.43;;;18.00;86.80;;;;;;5052169;28;20029;-79
2023/09/16 00:55:23;;;;;;;14.38;8.45;;;18.00;86.90;;;;;;5053337;28;20031;-78
2023/09/16 00:57:52;;;;;;;11.45;8.10;;;18.00;87.00;;;;;;5053048;28;20085;-78
2023/09/16 01:00:18;;;;;;;14.88;9.10;;;18.00;86.90;;;;;;5053126;28;20037;-78
2023/09/16 01:02:45;;;;;;;12.80;9.00;;;18.00;86.90;;;;;;5053182;28;20088;-78
2023/09/16 01:05:17;;;;;;;13.60;9.05;;;18.00;87.00;;;;;;5052969;28;20037;-78
2023/09/16 01:07:47;;;;;;;15.43;9.10;;;17.90;87.30;;;;;;5052168;28;20037;-79
2023/09/16 01:10:14;;;;;;;12.27;8.38;;;17.90;87.20;;;;;;5053443;28;20025;-78
2023/09/16 01:12:44;;;;;;;14.45;9.20;;;17.80;87.20;;;;;;5056108;28;20048;-78
2023/09/16 01:15:13;;;;;;;13.55;9.20;;;17.80;87.40;;;;;;5055979;28;20025;-78
2023/09/16 01:17:45;;;;;;;14.32;9.23;;;17.70;87.60;;;;;;5056894;28;20025;-79
2023/09/16 01:20:13;;;;;;;12.85;8.55;;;17.70;87.90;;;;;;5055865;28;20049;-78
2023/09/16 01:22:44;;;;;;;12.52;9.25;;;17.70;88.00;;;;;;5055740;28;20032;-78
2023/09/16 01:25:10;;;;;;;12.93;8.70;;;17.60;88.10;;;;;;5039936;28;20037;-78
2023/09/16 01:27:37;;;;;;;11.27;8.40;;;17.70;88.10;;;;;;5055786;28;20089;-78
2023/09/16 01:30:05;;;;;;;11.82;8.02;;;17.70;88.00;;;;;;5056666;28;20089;-78
2023/09/16 01:33:01;;;;;;;12.30;7.78;;;17.70;87.80;;;;;;5056562;28;20389;-79
2023/09/16 01:35:32;;;;;;;13.77;8.07;;;17.80;87.40;;;;;;5046935;28;20113;-78
2023/09/16 01:37:59;;;;;;;11.90;7.70;;;17.70;87.30;;;;;;5055537;28;20029;-78
2023/09/16 01:40:27;;;;;;;12.07;8.23;;;17.70;87.60;;;;;;5055606;28;20038;-78
2023/09/16 01:42:54;;;;;;;12.75;8.88;;;17.70;87.90;;;;;;5038930;28;20025;-78
2023/09/16 01:45:20;;;;;;;13.07;8.73;;;17.70;87.80;;;;;;5055375;28;20033;-78
2023/09/16 01:47:47;;;;;;;11.00;8.05;;;17.70;87.70;;;;;;5056326;28;20033;-78
2023/09/16 01:50:13;;;;;;;10.98;8.38;;;17.70;87.60;;;;;;5055242;28;20017;-78
2023/09/16 01:52:39;;;;;;;11.35;8.93;;;17.70;87.60;;;;;;5056265;28;20025;-78
2023/09/16 01:55:05;;;;;;;12.05;8.32;;;17.70;87.40;;;;;;5055212;28;20033;-78
2023/09/16 01:57:30;;;;;;;12.55;8.68;;;17.70;87.30;;;;;;5055245;28;20040;-78
2023/09/16 01:59:56;;;;;;;13.30;8.55;;;17.70;87.30;;;;;;5055274;28;20033;-78
2023/09/16 02:02:21;;;;;;;14.88;8.70;;;17.70;87.40;;;;;;5056049;28;20100;-78
2023/09/16 02:04:47;;;;;;;12.48;8.95;;;17.70;87.60;;;;;;5056052;28;20045;-78
2023/09/16 02:07:13;;;;;;;14.43;8.30;;;17.60;87.70;;;;;;5038526;28;20030;-78
2023/09/16 02:09:40;;;;;;;13.52;9.00;;;17.60;87.80;;;;;;5038509;28;20026;-78
2023/09/16 02:12:06;;;;;;;13.45;8.95;;;17.50;87.90;;;;;;5055961;28;20104;-78
2023/09/16 02:14:37;;;;;;;12.93;8.82;;;17.50;88.00;;;;;;5055865;28;20028;-78
2023/09/16 02:17:03;;;;;;;10.80;8.32;;;17.60;88.10;;;;;;5054788;28;20106;-78
2023/09/16 02:19:29;;;;;;;14.85;9.30;;;17.50;88.20;;;;;;5038508;28;20022;-78
2023/09/16 02:21:54;;;;;;;14.02;9.02;;;17.50;88.00;;;;;;5055296;28;20060;-78
2023/09/16 02:24:20;;;;;;;14.25;9.20;;;17.50;88.20;;;;;;5054704;28;20033;-78
2023/09/16 02:26:45;;;;;;;12.60;9.48;;;17.40;88.40;;;;;;5055650;28;20037;-78
2023/09/16 02:29:11;;;;;;;12.50;8.63;;;17.40;88.40;;;;;;5054655;28;20025;-78
2023/09/16 02:31:37;;;;;;;13.15;8.93;;;17.40;88.30;;;;;;5054316;28;20053;-78
2023/09/16 02:34:02;;;;;;;16.70;8.88;;;17.40;88.40;;;;;;5055476;28;20092;-78
2023/09/16 02:36:28;;;;;;;12.27;8.75;;;17.40;88.50;;;;;;5054426;28;20025;-78
2023/09/16 02:38:54;;;;;;;10.65;8.07;;;17.40;88.40;;;;;;5055373;28;20037;-79
2023/09/16 02:41:19;;;;;;;11.52;8.18;;;17.40;88.20;;;;;;5054406;28;20030;-78
2023/09/16 02:43:46;;;;;;;13.90;8.05;;;17.40;88.10;;;;;;5055296;28;20032;-78
2023/09/16 02:46:12;;;;;;;10.52;7.40;;;17.40;88.00;;;;;;5055178;28;20021;-78
2023/09/16 02:48:38;;;;;;;10.82;7.20;;;17.40;87.90;;;;;;5037651;28;20029;-78
2023/09/16 02:51:03;;;;;;;11.25;7.70;;;17.40;87.90;;;;;;5055279;28;20164;-78
2023/09/16 02:53:29;;;;;;;12.07;8.30;;;17.40;87.70;;;;;;5037549;28;20026;-78
2023/09/16 02:55:56;;;;;;;14.40;8.90;;;17.40;87.80;;;;;;5055236;28;20077;-78
2023/09/16 02:58:22;;;;;;;13.88;8.73;;;17.40;88.00;;;;;;5054128;28;20037;-78
2023/09/16 03:00:47;;;;;;;11.15;7.75;;;17.40;88.20;;;;;;5054004;28;20024;-78
2023/09/16 03:03:14;;;;;;;14.73;8.90;;;17.40;88.10;;;;;;5037369;28;20057;-79
2023/09/16 03:05:45;;;;;;;15.55;8.88;;;17.40;88.10;;;;;;5054819;28;20033;-78
2023/09/16 03:08:14;;;;;;;10.23;7.38;;;17.40;88.20;;;;;;5054872;28;20048;-78
2023/09/16 03:10:40;;;;;;;12.65;7.97;;;17.40;87.90;;;;;;5054810;28;20116;-77
2023/09/16 03:13:06;;;;;;;11.82;9.02;;;17.30;87.90;;;;;;5054733;28;20013;-78
2023/09/16 03:15:31;;;;;;;15.95;9.23;;;17.20;88.20;;;;;;5053740;28;20046;-78
2023/09/16 03:17:57;;;;;;;14.38;9.68;;;17.10;88.60;;;;;;5054651;28;20085;-78
2023/09/16 03:20:22;;;;;;;13.77;9.40;;;17.10;89.00;;;;;;5053603;28;20036;-78
2023/09/16 03:22:48;;;;;;;13.05;9.00;;;17.10;89.30;;;;;;5037204;28;20036;-78
2023/09/16 03:25:14;;;;;;;13.15;9.05;;;17.00;89.50;;;;;;5036897;28;20067;-78
2023/09/16 03:27:39;;;;;;;18.77;9.25;;;17.00;89.50;;;;;;5054472;28;20017;-78
2023/09/16 03:30:06;;;;;;;12.07;8.48;;;17.00;89.60;;;;;;5054402;28;20034;-78
2023/09/16 03:32:31;;;;;;;13.48;9.40;;;17.00;89.60;;;;;;5053791;28;20048;-78
2023/09/16 03:34:57;;;;;;;9.57;7.47;;;17.00;89.70;;;;;;5053798;28;20052;-78
2023/09/16 03:37:22;;;;;;;12.05;8.75;;;17.00;89.60;;;;;;5036765;28;20033;-78
2023/09/16 03:39:48;;;;;;;15.18;9.40;;;17.00;89.50;;;;;;5053311;28;20026;-78
2023/09/16 03:42:14;;;;;;;12.00;7.70;;;17.00;89.60;;;;;;5054165;28;20034;-78
2023/09/16 03:44:40;;;;;;;10.88;7.80;;;17.00;89.40;;;;;;5054038;28;20049;-78
2023/09/16 03:47:07;;;;;;;10.88;8.07;;;17.00;89.20;;;;;;5053155;28;20041;-78
2023/09/16 03:49:33;;;;;;;14.20;8.55;;;16.90;90.00;;;;;;5053130;28;20064;-78
2023/09/16 03:51:58;;;;;;;13.57;8.95;;;16.90;89.20;;;;;;5054018;28;20055;-78
2023/09/16 03:54:26;;;;;;;13.02;8.80;;;16.90;89.20;;;;;;5052995;28;20045;-78
2023/09/16 03:56:52;;;;;;;13.48;9.15;;;17.00;89.30;;;;;;5053013;28;20041;-78
2023/09/16 03:59:17;;;;;;;12.43;8.77;;;17.00;89.40;;;;;;5053953;28;20033;-78
2023/09/16 04:01:43;;;;;;;12.65;9.05;;;17.00;89.40;;;;;;5052869;28;20052;-78
2023/09/16 04:04:08;;;;;;;14.25;9.40;;;16.90;89.60;;;;;;5052899;28;20415;-78
2023/09/16 04:06:34;;;;;;;15.93;9.88;;;16.90;89.90;;;;;;5053740;28;20049;-78
2023/09/16 04:09:00;;;;;;;15.10;9.85;;;16.80;90.00;;;;;;5053864;28;20037;-78
2023/09/16 04:11:27;;;;;;;13.35;9.55;;;16.80;90.10;;;;;;5053713;28;20040;-79
2023/09/16 04:13:53;;;;;;;13.10;9.40;;;16.80;90.20;;;;;;5052680;28;20030;-78
2023/09/16 04:16:19;;;;;;;14.65;9.63;;;16.80;90.20;;;;;;5052673;28;20036;-78
2023/09/16 04:18:44;;;;;;;16.10;10.07;;;16.70;90.30;;;;;;5052876;28;20033;-78
2023/09/16 04:21:10;;;;;;;11.27;7.72;;;16.70;90.30;;;;;;5053457;28;20045;-78
2023/09/16 04:23:36;;;;;;;8.32;6.35;;;16.80;90.70;;;;;;5052526;28;20087;-78
2023/09/16 04:26:01;;;;;;;10.15;6.57;;;16.80;90.10;;;;;;5052469;28;20034;-78
2023/09/16 04:28:28;;;;;;;7.97;6.50;;;16.70;90.00;;;;;;5053397;28;20025;-79
2023/09/16 04:30:54;;;;;;;9.73;7.10;;;16.70;90.00;;;;;;5053212;28;20481;-78
2023/09/16 04:33:21;;;;;;;9.27;7.53;;;16.70;90.10;;;;;;5053426;28;20032;-78
2023/09/16 04:35:50;;;;;;;9.85;7.18;;;16.70;90.20;;;;;;5053214;28;20060;-78
2023/09/16 04:38:18;;;;;;;12.88;8.13;;;16.70;90.20;;;;;;5052428;28;20033;-78
2023/09/16 04:40:44;;;;;;;11.82;8.70;;;16.70;90.20;;;;;;5052233;28;20025;-78
2023/09/16 04:43:13;;;;;;;11.60;7.53;;;16.70;90.30;;;;;;5053402;28;20025;-78
2023/09/16 04:45:48;;;;;;;12.35;7.93;;;16.60;90.40;;;;;;5052948;28;20052;-78
2023/09/16 04:48:16;;;;;;;12.88;8.77;;;16.60;90.40;;;;;;5053234;28;20503;-78
2023/09/16 04:50:45;;;;;;;10.75;7.68;;;16.70;90.50;;;;;;5053454;28;20017;-79
2023/09/16 04:53:11;;;;;;;12.57;7.78;;;16.70;90.50;;;;;;5052228;28;20018;-78
2023/09/16 04:55:37;;;;;;;12.85;8.45;;;16.70;90.40;;;;;;5053210;28;20036;-78
2023/09/16 04:58:03;;;;;;;13.63;7.95;;;16.70;90.30;;;;;;5053124;28;20029;-78
2023/09/16 05:00:33;;;;;;;13.57;8.65;;;16.80;90.30;;;;;;5052323;28;20029;-78
2023/09/16 05:03:02;;;;;;;11.23;7.30;;;16.80;90.30;;;;;;5053357;28;20499;-78
2023/09/16 05:05:28;;;;;;;7.97;6.00;;;16.80;90.20;;;;;;5051956;28;20021;-78
2023/09/16 05:07:53;;;;;;;13.00;7.25;;;16.70;90.20;;;;;;5053135;28;20098;-78
2023/09/16 05:10:19;;;;;;;11.13;8.77;;;16.70;90.20;;;;;;5052072;28;20022;-78
2023/09/16 05:12:44;;;;;;;13.95;9.52;;;16.70;90.20;;;;;;5052070;28;20037;-78
2023/09/16 05:15:10;;;;;;;14.88;10.25;;;16.70;90.20;;;;;;5052117;28;20033;-78
2023/09/16 05:17:37;;;;;;;13.95;9.63;;;16.70;90.20;;;;;;5053088;28;20034;-78
2023/09/16 05:20:04;;;;;;;15.40;9.40;;;16.70;90.30;;;;;;5051974;28;20056;-78
2023/09/16 05:22:30;;;;;;;13.68;9.25;;;16.70;90.30;;;;;;5051890;28;20036;-78
2023/09/16 05:24:55;;;;;;;13.63;9.48;;;16.70;90.40;;;;;;5052774;28;20026;-77
2023/09/16 05:27:22;;;;;;;14.40;9.63;;;16.60;90.40;;;;;;5052847;28;20097;-78
2023/09/16 05:29:55;;;;;;;14.75;9.15;;;16.60;90.60;;;;;;5035338;28;20030;-78
2023/09/16 05:32:22;;;;;;;13.40;9.00;;;16.70;90.60;;;;;;5051704;28;20045;-78
2023/09/16 05:34:47;;;;;;;13.25;8.57;;;16.70;90.50;;;;;;5052666;28;20021;-78
2023/09/16 05:37:13;;;;;;;10.60;7.97;;;16.60;90.40;;;;;;5052766;28;20056;-78
2023/09/16 05:39:39;;;;;;;9.82;7.93;;;16.60;90.40;;;;;;5052849;28;20116;-79
2023/09/16 05:42:05;;;;;;;11.90;8.27;;;16.60;90.50;;;;;;5051717;28;20037;-79
2023/09/16 05:44:31;;;;;;;14.07;9.23;;;16.50;90.50;;;;;;5051560;28;20038;-79
2023/09/16 05:46:56;;;;;;;12.15;8.95;;;16.50;90.60;;;;;;5052632;28;20032;-79
2023/09/16 05:49:22;;;;;;;13.65;9.13;;;16.50;90.70;;;;;;5051756;28;20029;-79
2023/09/16 05:51:47;;;;;;;13.13;9.70;;;16.50;90.80;;;;;;5052584;28;20030;-79
2023/09/16 05:54:15;;;;;;;15.50;9.57;;;16.50;90.80;;;;;;5035101;28;20034;-78
2023/09/16 05:56:42;;;;;;;16.67;10.38;;;16.60;90.90;;;;;;5052656;28;20020;-79
2023/09/16 05:59:08;;;;;;;15.73;10.30;;;16.60;90.90;;;;;;5056083;28;20028;-79
2023/09/16 06:01:34;;;;;;;15.85;10.27;;;16.60;90.90;;;;;;5038739;28;20026;-79
2023/09/16 06:04:00;;;;;;;18.35;10.70;;;16.70;91.00;;;;;;5055960;28;20029;-79
2023/09/16 06:06:25;;;;;;;17.73;10.40;;;16.70;91.00;;;;;;5038412;28;20021;-80
2023/09/16 06:08:51;;;;;;;17.55;10.43;;;16.70;91.00;;;;;;5054932;28;20062;-79
2023/09/16 06:11:16;;;;;;;17.30;10.65;;;16.70;91.10;;;;;;5054853;28;20033;-79
2023/09/16 06:13:42;;;;;;;20.02;11.27;;;16.70;91.20;;;;;;5055029;28;20028;-79
2023/09/16 06:16:08;;;;;;;17.08;11.02;;;16.80;91.20;;;;;;5038375;28;20334;-79
2023/09/16 06:18:35;;;;;;;17.27;11.00;;;16.80;91.20;;;;;;5038389;28;20060;-81
2023/09/16 06:21:01;;;;;;;16.08;10.80;;;16.80;91.20;;;;;;5054871;28;20021;-80
2023/09/16 06:23:27;;;;;;;16.23;10.85;;;16.90;91.30;;;;;;5055714;28;20037;-79
2023/09/16 06:25:53;;;;;;;18.10;11.30;;;16.90;91.70;;;;;;5055585;28;20030;-80
2023/09/16 06:28:18;;;;;;;19.45;11.57;;;17.00;91.40;;;;;;5054664;28;20026;-79
2023/09/16 06:30:44;;;;;;;16.70;11.15;;;17.00;91.40;;;;;;5054458;28;20060;-80
2023/09/16 06:33:11;;;;;;;17.42;11.07;;;17.00;91.40;;;;;;5054424;28;20049;-79
2023/09/16 06:35:36;;;;;;;19.85;12.20;;;17.00;91.40;;;;;;5055374;28;20042;-80
2023/09/16 06:38:02;;;;;;;18.55;12.05;;;17.10;91.60;;;;;;5037884;28;20037;-80
2023/09/16 06:40:28;;;;;;;16.63;11.45;;;17.10;91.70;;;;;;5054332;28;20029;-80
2023/09/16 06:42:53;;;;;;;20.15;11.15;;;17.10;91.70;;;;;;5038152;28;20060;-81
2023/09/16 06:45:19;;;;;;;16.27;10.70;;;17.20;91.80;;;;;;5055203;28;20034;-80
2023/09/16 06:47:44;;;;;;;16.08;10.27;;;17.20;92.00;;;;;;5054197;28;20040;-79
2023/09/16 06:50:10;;;;;;;17.40;10.77;;;17.20;92.00;;;;;;5054224;28;20036;-78
2023/09/16 06:52:37;;;;;;;15.80;10.55;;;17.30;92.10;;;;;;5054116;28;20037;-79
2023/09/16 06:55:03;;;;;;;17.55;11.38;;;17.30;92.40;;;;;;5054104;28;20100;-79
2023/09/16 06:57:29;;;;;;;18.63;11.02;;;17.30;92.80;;;;;;5054059;28;20056;-80
2023/09/16 06:59:55;;;;;;;17.02;9.98;;;17.40;92.60;;;;;;5037492;28;20029;-79
2023/09/16 07:02:22;;;;;;;15.23;10.00;;;17.40;92.50;;;;;;5055030;28;20036;-79
2023/09/16 07:04:48;;;;;;;15.25;9.93;;;17.50;92.40;;;;;;5054086;28;20026;-78
2023/09/16 07:07:14;;;;;;;15.48;9.98;;;17.50;92.40;;;;;;5054086;28;20045;-77
2023/09/16 07:09:40;;;;;;;16.13;10.00;;;17.60;92.40;;;;;;5054813;28;20390;-79
2023/09/16 07:12:06;;;;;;;19.65;10.57;;;17.60;92.40;;;;;;5054946;28;20081;-79
2023/09/16 07:14:35;;;;;;;18.92;11.07;;;17.70;92.60;;;;;;5054828;28;20021;-78
2023/09/16 07:17:01;;;;;;;14.50;10.07;;;17.70;92.60;;;;;;5054715;28;20096;-79
2023/09/16 07:19:27;;;;;;;17.88;11.57;;;17.80;92.60;;;;;;5020779;28;20045;-78
2023/09/16 07:21:52;;;;;;;16.48;10.90;;;17.90;92.70;;;;;;5053663;28;20044;-79
2023/09/16 07:24:18;;;;;;;14.20;9.73;;;17.90;92.70;;;;;;5053480;28;20033;-78
2023/09/16 07:26:44;;;;;;;16.65;11.48;;;18.00;92.70;;;;;;5020689;28;20033;-78
2023/09/16 07:29:10;;;;;;;17.35;10.82;;;18.10;92.70;;;;;;5054415;28;20026;-80
2023/09/16 07:31:35;;;;;;;18.08;10.63;;;18.10;92.70;;;;;;5036730;28;20053;-79
2023/09/16 07:34:01;;;;;;;15.93;10.70;;;18.20;92.80;;;;;;5053353;28;20461;-80
2023/09/16 07:36:27;;;;;;;15.55;9.98;;;18.30;92.70;;;;;;5054317;28;20052;-79
2023/09/16 07:38:52;;;;;;;18.40;10.68;;;18.40;92.60;;;;;;5036903;28;20026;-77
2023/09/16 07:41:18;;;;;;;16.88;9.90;;;18.40;92.60;;;;;;5053203;28;20022;-78
2023/09/16 07:43:44;;;;;;;18.13;10.68;;;18.50;92.60;;;;;;5053266;28;20068;-77
2023/09/16 07:46:09;;;;;;;16.33;10.18;;;18.60;92.60;;;;;;5036536;28;20033;-77
2023/09/16 07:48:35;;;;;;;20.83;11.55;;;18.70;92.90;;;;;;5020283;28;20029;-77
2023/09/16 07:51:00;;;;;;;14.80;9.88;;;18.70;92.70;;;;;;5053077;28;20021;-77
2023/09/16 07:53:26;;;;;;;14.82;9.45;;;18.80;92.50;;;;;;5054149;28;20472;-77
2023/09/16 07:55:52;;;;;;;16.35;9.77;;;18.80;92.50;;;;;;5052930;28;20038;-77
2023/09/16 07:58:17;;;;;;;12.77;8.68;;;18.90;92.40;;;;;;5053880;28;20040;-77
2023/09/16 08:00:43;;;;;;;14.70;8.98;;;19.00;92.30;;;;;;5053885;28;20057;-77
2023/09/16 08:03:09;;;;;;;13.82;8.85;;;19.10;92.20;;;;;;5053779;28;20080;-77
2023/09/16 08:05:34;;;;;;;13.73;8.48;;;19.20;92.10;;;;;;5052785;28;20093;-77
2023/09/16 08:08:00;;;;;;;13.95;8.32;;;19.30;92.00;;;;;;5036355;28;20028;-77
2023/09/16 08:10:26;;;;;;;15.18;7.97;;;19.30;91.70;;;;;;5036391;28;20132;-77
2023/09/16 08:12:51;;;;;;;15.30;9.23;;;19.40;91.60;;;;;;5036273;28;20112;-77
2023/09/16 08:15:17;;;;;;;13.30;7.93;;;19.50;91.40;;;;;;5053639;28;20173;-77
2023/09/16 08:17:43;;;;;;;15.45;8.88;;;19.50;91.20;;;;;;5036233;28;20040;-77
2023/09/16 08:20:09;;;;;;;13.00;8.60;;;19.60;91.20;;;;;;5053113;28;20049;-77
2023/09/16 08:22:35;;;;;;;11.23;8.30;;;19.60;91.00;;;;;;5052520;28;20033;-77
2023/09/16 08:25:05;;;;;;;13.20;9.23;;;19.70;91.00;;;;;;5052429;28;20057;-77
2023/09/16 08:27:31;;;;;;;14.75;9.43;;;19.80;91.00;;;;;;5036011;28;20025;-77
2023/09/16 08:29:56;;;;;;;13.07;8.35;;;19.90;91.10;;;;;;5036135;28;20097;-77
2023/09/16 08:32:24;;;;;;;12.18;8.15;;;20.00;91.00;;;;;;5052897;28;20061;-77
2023/09/16 08:34:50;;;;;;;13.23;8.75;;;20.00;90.90;;;;;;5053429;28;20085;-77
2023/09/16 08:37:16;;;;;;;15.77;9.40;;;20.10;90.80;;;;;;5053290;28;20033;-77
2023/09/16 08:39:42;;;;;;;16.13;9.35;;;20.20;90.70;;;;;;5053338;28;20014;-77
2023/09/16 08:42:22;;;;;;;15.57;9.32;;;20.30;90.50;;;;;;5053195;28;20049;-77
2023/09/16 08:44:52;;;;;;;14.38;8.82;;;20.30;90.40;;;;;;5053171;28;20055;-77
2023/09/16 08:47:31;;;;;;;12.50;8.38;;;20.40;90.40;;;;;;5053218;28;20038;-77
2023/09/16 08:50:06;;;;;;;15.88;9.63;;;20.40;89.80;;;;;;5053211;28;20026;-77
2023/09/16 08:52:53;;;;;;;15.50;9.32;;;20.50;89.80;;;;;;5053137;28;20026;-77
2023/09/16 08:55:20;;;;;;;14.63;8.98;;;20.60;89.70;;;;;;5053114;28;20022;-77
2023/09/16 08:57:56;;;;;;;11.50;7.88;;;20.60;89.10;;;;;;5053089;28;20030;-77
2023/09/16 09:00:21;;;;;;;16.02;9.10;;;20.70;89.40;;;;;;5053150;28;20049;-77
2023/09/16 09:02:48;;;;;;;13.98;8.13;;;20.80;89.10;;;;;;5053046;28;20495;-77
2023/09/16 09:05:15;;;;;;;17.25;8.63;;;20.90;88.20;;;;;;5052956;28;20026;-77
2023/09/16 09:07:41;;;;;;;12.77;8.48;;;20.90;88.10;;;;;;5053027;28;20089;-77
2023/09/16 09:10:08;;;;;;;12.27;8.80;;;21.00;88.30;;;;;;5051969;28;20042;-77
2023/09/16 09:12:35;;;;;;;14.82;8.85;;;21.00;88.30;;;;;;5052263;28;20029;-77
2023/09/16 09:15:06;;;;;;;10.98;7.38;;;21.20;88.50;;;;;;5052955;28;20037;-77
2023/09/16 09:17:44;;;;;;;11.70;8.02;;;21.30;88.00;;;;;;5052896;28;20044;-77
2023/09/16 09:20:21;;;;;;;11.30;7.72;;;21.40;88.00;;;;;;5052938;28;20021;-77
2023/09/16 09:22:49;;;;;;;12.35;7.07;;;21.50;87.70;;;;;;5051960;28;20021;-77
2023/09/16 09:25:18;;;;;;;10.77;7.50;;;21.60;87.80;;;;;;5052784;28;20029;-77
2023/09/16 09:27:44;;;;;;;12.35;7.32;;;21.70;87.20;;;;;;5051840;28;20025;-77
2023/09/16 09:30:10;;;;;;;10.90;7.05;;;21.80;87.30;;;;;;5052952;28;20030;-77
2023/09/16 09:32:37;;;;;;;12.57;7.15;;;21.90;87.20;;;;;;5055253;28;20061;-77
2023/09/16 09:35:06;;;;;;;11.05;7.13;;;22.00;86.80;;;;;;5056630;28;20025;-77
2023/09/16 09:37:33;;;;;;;13.75;7.68;;;22.10;86.80;;;;;;5056588;28;20038;-77
2023/09/16 09:40:12;;;;;;;11.38;7.75;;;22.20;85.80;;;;;;5056558;28;20101;-77
2023/09/16 09:42:46;;;;;;;13.68;7.18;;;22.20;84.50;;;;;;5055509;28;20049;-77
2023/09/16 09:45:14;;;;;;;11.63;7.18;;;22.30;85.00;;;;;;5056569;28;20104;-77
2023/09/16 09:47:41;;;;;;;10.30;7.10;;;22.40;84.70;;;;;;5056416;28;20044;-77
2023/09/16 09:50:11;;;;;;;12.13;6.97;;;22.50;85.30;;;;;;5056341;28;20036;-77
2023/09/16 09:52:37;;;;;;;12.82;7.15;;;22.60;84.70;;;;;;5056584;28;20017;-77
2023/09/16 09:55:03;;;;;;;12.05;7.05;;;22.70;83.90;;;;;;5056279;28;20026;-77
2023/09/16 09:57:29;;;;;;;11.02;6.93;;;22.70;83.20;;;;;;5056315;28;20030;-77
2023/09/16 09:59:57;;;;;;;12.13;8.05;;;22.80;83.80;;;;;;5055220;28;20075;-77
2023/09/16 10:02:25;;;;;;;11.48;7.13;;;22.80;83.00;;;;;;5055190;28;20036;-77
2023/09/16 10:05:01;;;;;;;10.07;7.18;;;23.00;83.00;;;;;;5056007;28;20021;-77
2023/09/16 10:07:28;;;;;;;10.82;7.00;;;23.10;82.90;;;;;;5056071;28;20048;-77
2023/09/16 10:09:54;;;;;;;10.07;6.72;;;23.20;83.80;;;;;;5056003;28;20104;-77
2023/09/16 10:12:23;;;;;;;11.90;7.25;;;23.30;83.00;;;;;;5055939;28;20037;-77
2023/09/16 10:14:51;;;;;;;8.95;6.63;;;23.30;82.80;;;;;;5055869;28;20022;-77
2023/09/16 10:17:17;;;;;;;11.20;6.63;;;23.40;82.90;;;;;;5055839;28;20084;-77
2023/09/16 10:19:43;;;;;;;11.25;7.03;;;23.50;83.00;;;;;;5055920;28;20033;-77
2023/09/16 10:22:11;;;;;;;8.25;5.50;;;23.50;83.30;;;;;;5038389;28;20029;-77
2023/09/16 10:24:39;;;;;;;9.05;5.53;;;23.60;82.70;;;;;;5054671;28;20060;-77
2023/09/16 10:27:17;;;;;;;9.25;5.97;;;23.60;82.20;;;;;;5055641;28;20026;-77
2023/09/16 10:29:44;;;;;;;6.70;5.03;;;23.70;82.00;;;;;;5055835;28;20013;-77
2023/09/16 10:32:12;;;;;;;10.40;5.25;;;23.80;82.50;;;;;;5055390;28;20085;-77
2023/09/16 10:34:38;;;;;;;16.45;7.60;;;23.90;81.70;;;;;;5054654;28;20060;-77
2023/09/16 10:37:04;;;;;;;8.63;6.22;;;24.10;79.70;;;;;;5054449;28;20120;-77
2023/09/16 10:39:31;;;;;;;9.40;5.38;;;24.00;79.60;;;;;;5054456;28;20029;-77
2023/09/16 10:41:58;;;;;;;11.38;5.75;;;24.10;80.50;;;;;;5055025;28;20030;-77
2023/09/16 10:44:24;;;;;;;9.30;5.70;;;24.20;80.40;;;;;;5055272;28;20093;-77
2023/09/16 10:46:50;;;;;;;9.82;5.35;;;24.30;80.00;;;;;;5054450;28;20030;-77
2023/09/16 10:49:16;;;;;;;9.25;5.25;;;24.40;79.50;;;;;;5054228;28;20040;-77
2023/09/16 10:51:42;;;;;;;7.28;4.97;;;24.50;79.20;;;;;;5055305;28;20031;-77
2023/09/16 10:54:26;;;;;;;7.25;5.05;;;24.60;79.30;;;;;;5055171;28;20024;-77
2023/09/16 10:56:56;;;;;;;8.63;5.40;;;24.70;79.20;;;;;;5055166;28;20044;-77
2023/09/16 10:59:28;;;;;;;8.25;5.70;;;24.80;78.80;;;;;;5055146;28;20014;-77
2023/09/16 11:01:56;;;;;;;;;;;24.90;78.60;;;;;;5055487;28;20052;-77
2023/09/16 11:04:23;;;;;;;8.35;5.80;;;24.80;78.40;;;;;;5054952;28;19905;-77
2023/09/16 11:06:50;;;;;;;9.20;6.25;;;24.80;79.10;;;;;;5037440;28;20089;-77
2023/09/16 11:09:26;;;;;;;9.68;6.20;;;24.80;78.10;;;;;;5054838;28;20028;-77
2023/09/16 11:11:52;;;;;;;9.05;5.18;;;24.90;77.70;;;;;;5054882;28;20021;-77
2023/09/16 11:14:20;;;;;;;12.02;5.68;;;24.90;78.60;;;;;;5037490;28;20034;-77
2023/09/16 11:16:54;;;;;;;10.80;5.22;;;24.90;78.00;;;;;;5054716;28;20033;-78
2023/09/16 11:19:25;;;;;;;7.50;4.78;;;25.00;77.90;;;;;;5053759;28;20033;-77
2023/09/16 11:21:52;;;;;;;7.63;5.45;;;25.00;77.60;;;;;;5054631;28;20100;-77
2023/09/16 11:24:17;;;;;;;7.68;5.10;;;25.00;77.70;;;;;;5054464;28;20085;-77
2023/09/16 11:26:47;;;;;;;7.32;5.75;;;25.10;77.80;;;;;;5054675;28;20025;-77
2023/09/16 11:29:18;;;;;;;7.97;5.35;;;25.10;77.30;;;;;;5053621;28;20029;-77
2023/09/16 11:31:44;;;;;;;8.52;5.43;;;25.10;77.10;;;;;;5054461;28;20041;-77
2023/09/16 11:34:12;;;;;;;7.78;4.80;;;25.20;76.00;;;;;;5053152;28;20041;-77
2023/09/16 11:36:42;;;;;;;9.95;5.50;;;25.20;76.40;;;;;;5054312;28;20018;-77
2023/09/16 11:39:08;;;;;;;7.15;5.30;;;25.20;77.00;;;;;;5054362;28;20029;-78
2023/09/16 11:41:34;;;;;;;10.00;5.50;;;25.30;76.80;;;;;;5054281;28;20036;-77
2023/09/16 11:44:00;;;;;;;7.55;5.00;;;25.40;76.70;;;;;;5053248;28;20029;-77
2023/09/16 11:46:26;;;;;;;7.43;5.55;;;25.50;76.80;;;;;;5054140;28;20037;-77
2023/09/16 11:48:57;;;;;;;10.80;5.53;;;25.50;76.60;;;;;;5053099;28;20025;-77
2023/09/16 11:51:25;;;;;;;7.85;5.07;;;25.60;75.80;;;;;;5054043;28;20033;-77
2023/09/16 11:53:53;;;;;;;8.63;5.20;;;25.70;76.10;;;;;;5052419;28;20049;-77
2023/09/16 11:56:21;;;;;;;7.85;5.00;;;25.80;76.10;;;;;;5052977;28;20029;-78
2023/09/16 11:58:47;;;;;;;7.15;5.53;;;25.80;75.90;;;;;;5053951;28;20025;-78
2023/09/16 12:01:18;;;;;;;7.85;5.28;;;25.80;75.50;;;;;;5036315;28;20026;-77
2023/09/16 12:03:44;;;;;;;10.27;5.57;;;25.80;76.10;;;;;;5053890;28;20056;-77
2023/09/16 12:06:11;;;;;;;10.75;6.50;;;25.90;76.20;;;;;;5052695;28;20033;-77
2023/09/16 12:08:39;;;;;;;9.40;6.07;;;25.90;75.40;;;;;;5053824;28;20071;-77
2023/09/16 12:11:06;;;;;;;11.55;5.45;;;26.00;74.80;;;;;;5053748;28;20021;-78
2023/09/16 12:13:32;;;;;;;8.25;5.35;;;26.00;75.30;;;;;;5053675;28;20025;-78
2023/09/16 12:15:59;;;;;;;8.90;6.28;;;26.10;75.80;;;;;;5052660;28;20044;-77
2023/09/16 12:18:24;;;;;;;11.63;6.40;;;26.10;74.70;;;;;;5053652;28;20030;-77
2023/09/16 12:20:52;;;;;;;8.27;6.60;;;26.10;74.30;;;;;;5053605;28;20484;-77
2023/09/16 12:23:18;;;;;;;11.38;6.00;;;26.10;74.50;;;;;;5052495;28;20033;-77
2023/09/16 12:25:44;;;;;;;8.90;6.80;;;26.00;73.70;;;;;;5052376;28;20048;-77
2023/09/16 12:28:11;;;;;;;10.52;7.05;;;25.90;72.70;;;;;;5052455;28;20037;-77
2023/09/16 12:30:44;;;;;;;12.85;6.25;;;25.80;73.30;;;;;;5052406;28;20369;-77
2023/09/16 12:33:10;;;;;;;9.18;6.25;;;25.90;73.90;;;;;;5052203;28;20049;-77
2023/09/16 12:35:39;;;;;;;8.30;6.15;;;25.90;75.20;;;;;;5035852;28;20034;-77
2023/09/16 12:38:06;;;;;;;8.85;5.70;;;26.00;75.40;;;;;;5052426;28;20029;-77